Sayabec, Canada
Current Conditions -  °F | °C
As of 10:00 AM on Wednesday 26 Nov 2014 (Local Time) from CYYY Reporting Station
Broken Clouds Broken Clouds  
Wind Chill: 20°   Ceiling: 8000
Heat Index: 30°   Visibility: 30mi
Dew Point: 18°   Wind: 14mph
Humidity: 60%   Direction: 320°NW
Pressure: 30.2"   Gusts: NA
Location:  48.55°N, 67.68°W
Report Text: CYYY 261500Z 32012KT 30SM SCT045 BKN080 M01/M08 A3020 RMK SC4AC3 SLP231
Loading
Personal Weather Stations






























Interactive Weather Map New forecast layout! Learn more

10-Day Weather Forecast

Advertisements
Track Severe Weather on mobile